sensor_id;sensor_type;location;lat;lon;timestamp;P1;P2;P0
40569;PMS5003;26270;34.428;-119.710;2022-11-11T00:00:57;0;0;
40569;PMS5003;26270;34.428;-119.710;2022-11-11T00:03:26;0;0;
40569;PMS5003;26270;34.428;-119.710;2022-11-11T00:05:59;0;0;
40569;PMS5003;26270;34.428;-119.710;2022-11-11T00:08:28;1;0;
40569;PMS5003;26270;34.428;-119.710;2022-11-11T00:11:00;0;0;
40569;PMS5003;26270;34.428;-119.710;2022-11-11T00:13:30;0;0;
40569;PMS5003;26270;34.428;-119.710;2022-11-11T00:16:05;1;0;
40569;PMS5003;26270;34.428;-119.710;2022-11-11T00:18:35;1;0;
40569;PMS5003;26270;34.428;-119.710;2022-11-11T00:21:04;0;0;
40569;PMS5003;26270;34.428;-119.710;2022-11-11T00:23:34;0;0;
40569;PMS5003;26270;34.428;-119.710;2022-11-11T00:26:02;0;0;
40569;PMS5003;26270;34.428;-119.710;2022-11-11T00:28:30;1;1;
40569;PMS5003;26270;34.428;-119.710;2022-11-11T00:31:00;1;1;
40569;PMS5003;26270;34.428;-119.710;2022-11-11T00:33:30;1;1;
40569;PMS5003;26270;34.428;-119.710;2022-11-11T00:35:58;0;0;
40569;PMS5003;26270;34.428;-119.710;2022-11-11T00:38:26;0;0;
40569;PMS5003;26270;34.428;-119.710;2022-11-11T00:40:54;0;0;
40569;PMS5003;26270;34.428;-119.710;2022-11-11T00:43:23;1;1;
40569;PMS5003;26270;34.428;-119.710;2022-11-11T00:45:51;2;1;
40569;PMS5003;26270;34.428;-119.710;2022-11-11T00:48:19;0;0;
40569;PMS5003;26270;34.428;-119.710;2022-11-11T00:50:48;0;0;
40569;PMS5003;26270;34.428;-119.710;2022-11-11T00:53:16;0;0;
40569;PMS5003;26270;34.428;-119.710;2022-11-11T00:55:46;1;1;
40569;PMS5003;26270;34.428;-119.710;2022-11-11T00:58:14;3;2;
40569;PMS5003;26270;34.428;-119.710;2022-11-11T01:00:43;2;2;
40569;PMS5003;26270;34.428;-119.710;2022-11-11T01:03:11;2;1;
40569;PMS5003;26270;34.428;-119.710;2022-11-11T01:05:40;2;2;
40569;PMS5003;26270;34.428;-119.710;2022-11-11T01:08:08;1;1;
40569;PMS5003;26270;34.428;-119.710;2022-11-11T01:10:37;0;0;
40569;PMS5003;26270;34.428;-119.710;2022-11-11T01:13:12;1;1;
40569;PMS5003;26270;34.428;-119.710;2022-11-11T01:15:44;1;1;
40569;PMS5003;26270;34.428;-119.710;2022-11-11T01:18:15;2;2;
40569;PMS5003;26270;34.428;-119.710;2022-11-11T01:20:44;2;1;
40569;PMS5003;26270;34.428;-119.710;2022-11-11T01:23:13;1;1;
40569;PMS5003;26270;34.428;-119.710;2022-11-11T01:25:41;2;2;
40569;PMS5003;26270;34.428;-119.710;2022-11-11T01:28:09;6;4;
40569;PMS5003;26270;34.428;-119.710;2022-11-11T01:30:38;5;4;
40569;PMS5003;26270;34.428;-119.710;2022-11-11T01:33:08;1;1;
40569;PMS5003;26270;34.428;-119.710;2022-11-11T01:35:37;2;2;
40569;PMS5003;26270;34.428;-119.710;2022-11-11T01:38:06;3;3;
40569;PMS5003;26270;34.428;-119.710;2022-11-11T01:40:39;2;2;
40569;PMS5003;26270;34.428;-119.710;2022-11-11T01:43:18;1;1;
40569;PMS5003;26270;34.428;-119.710;2022-11-11T01:45:49;2;1;
40569;PMS5003;26270;34.428;-119.710;2022-11-11T01:48:22;0;0;
40569;PMS5003;26270;34.428;-119.710;2022-11-11T01:50:56;3;3;
40569;PMS5003;26270;34.428;-119.710;2022-11-11T01:53:24;1;1;
40569;PMS5003;26270;34.428;-119.710;2022-11-11T01:55:52;2;2;
40569;PMS5003;26270;34.428;-119.710;2022-11-11T01:58:21;2;2;
40569;PMS5003;26270;34.428;-119.710;2022-11-11T02:00:49;1;1;
40569;PMS5003;26270;34.428;-119.710;2022-11-11T02:03:17;2;2;
40569;PMS5003;26270;34.428;-119.710;2022-11-11T02:05:49;1;1;
40569;PMS5003;26270;34.428;-119.710;2022-11-11T02:08:20;0;0;
40569;PMS5003;26270;34.428;-119.710;2022-11-11T02:10:52;0;0;
40569;PMS5003;26270;34.428;-119.710;2022-11-11T02:13:20;1;1;
40569;PMS5003;26270;34.428;-119.710;2022-11-11T02:15:49;2;2;
40569;PMS5003;26270;34.428;-119.710;2022-11-11T02:18:18;4;3;
40569;PMS5003;26270;34.428;-119.710;2022-11-11T02:20:46;4;4;
40569;PMS5003;26270;34.428;-119.710;2022-11-11T02:23:15;3;3;
40569;PMS5003;26270;34.428;-119.710;2022-11-11T02:25:51;3;3;
40569;PMS5003;26270;34.428;-119.710;2022-11-11T02:28:23;3;3;
40569;PMS5003;26270;34.428;-119.710;2022-11-11T02:30:53;4;4;
40569;PMS5003;26270;34.428;-119.710;2022-11-11T02:33:21;6;6;
40569;PMS5003;26270;34.428;-119.710;2022-11-11T02:35:50;4;4;
40569;PMS5003;26270;34.428;-119.710;2022-11-11T02:38:20;7;7;
40569;PMS5003;26270;34.428;-119.710;2022-11-11T02:40:50;4;4;
40569;PMS5003;26270;34.428;-119.710;2022-11-11T02:43:18;8;7;
40569;PMS5003;26270;34.428;-119.710;2022-11-11T02:45:47;12;12;
40569;PMS5003;26270;34.428;-119.710;2022-11-11T02:48:14;6;5;
40569;PMS5003;26270;34.428;-119.710;2022-11-11T02:50:43;7;7;
40569;PMS5003;26270;34.428;-119.710;2022-11-11T02:53:12;9;8;
40569;PMS5003;26270;34.428;-119.710;2022-11-11T02:55:39;5;5;
40569;PMS5003;26270;34.428;-119.710;2022-11-11T02:58:08;9;5;
40569;PMS5003;26270;34.428;-119.710;2022-11-11T03:00:37;8;7;
40569;PMS5003;26270;34.428;-119.710;2022-11-11T03:03:05;7;7;
40569;PMS5003;26270;34.428;-119.710;2022-11-11T03:05:34;8;8;
40569;PMS5003;26270;34.428;-119.710;2022-11-11T03:08:02;11;11;
40569;PMS5003;26270;34.428;-119.710;2022-11-11T03:10:30;9;8;
40569;PMS5003;26270;34.428;-119.710;2022-11-11T03:12:58;10;10;
40569;PMS5003;26270;34.428;-119.710;2022-11-11T03:15:27;9;9;
40569;PMS5003;26270;34.428;-119.710;2022-11-11T03:17:55;15;15;
40569;PMS5003;26270;34.428;-119.710;2022-11-11T03:20:23;21;19;
40569;PMS5003;26270;34.428;-119.710;2022-11-11T03:22:59;19;18;
40569;PMS5003;26270;34.428;-119.710;2022-11-11T03:25:29;12;11;
40569;PMS5003;26270;34.428;-119.710;2022-11-11T03:27:57;10;9;
40569;PMS5003;26270;34.428;-119.710;2022-11-11T03:30:25;8;8;
40569;PMS5003;26270;34.428;-119.710;2022-11-11T03:32:53;11;11;
40569;PMS5003;26270;34.428;-119.710;2022-11-11T03:35:22;10;9;
40569;PMS5003;26270;34.428;-119.710;2022-11-11T03:37:49;9;9;
40569;PMS5003;26270;34.428;-119.710;2022-11-11T03:40:17;10;10;
40569;PMS5003;26270;34.428;-119.710;2022-11-11T03:42:45;11;11;
40569;PMS5003;26270;34.428;-119.710;2022-11-11T03:45:14;14;12;
40569;PMS5003;26270;34.428;-119.710;2022-11-11T03:47:42;12;12;
40569;PMS5003;26270;34.428;-119.710;2022-11-11T03:50:10;13;13;
40569;PMS5003;26270;34.428;-119.710;2022-11-11T03:52:40;14;13;
40569;PMS5003;26270;34.428;-119.710;2022-11-11T03:55:08;15;13;
40569;PMS5003;26270;34.428;-119.710;2022-11-11T03:57:39;15;14;
40569;PMS5003;26270;34.428;-119.710;2022-11-11T04:00:08;15;15;
40569;PMS5003;26270;34.428;-119.710;2022-11-11T04:02:37;18;17;
40569;PMS5003;26270;34.428;-119.710;2022-11-11T04:05:05;21;19;
40569;PMS5003;26270;34.428;-119.710;2022-11-11T04:07:33;25;21;
40569;PMS5003;26270;34.428;-119.710;2022-11-11T04:10:02;21;21;
40569;PMS5003;26270;34.428;-119.710;2022-11-11T04:12:30;26;23;
40569;PMS5003;26270;34.428;-119.710;2022-11-11T04:15:01;20;19;
40569;PMS5003;26270;34.428;-119.710;2022-11-11T04:17:29;24;18;
40569;PMS5003;26270;34.428;-119.710;2022-11-11T04:19:58;19;18;
40569;PMS5003;26270;34.428;-119.710;2022-11-11T04:22:26;15;14;
40569;PMS5003;26270;34.428;-119.710;2022-11-11T04:24:55;15;15;
40569;PMS5003;26270;34.428;-119.710;2022-11-11T04:27:22;16;14;
40569;PMS5003;26270;34.428;-119.710;2022-11-11T04:29:50;14;13;
40569;PMS5003;26270;34.428;-119.710;2022-11-11T04:32:19;15;15;
40569;PMS5003;26270;34.428;-119.710;2022-11-11T04:34:48;12;12;
40569;PMS5003;26270;34.428;-119.710;2022-11-11T04:37:18;9;9;
40569;PMS5003;26270;34.428;-119.710;2022-11-11T04:39:47;9;8;
40569;PMS5003;26270;34.428;-119.710;2022-11-11T04:42:15;9;6;
40569;PMS5003;26270;34.428;-119.710;2022-11-11T04:44:44;6;6;
40569;PMS5003;26270;34.428;-119.710;2022-11-11T04:47:11;6;6;
40569;PMS5003;26270;34.428;-119.710;2022-11-11T04:49:40;5;5;
40569;PMS5003;26270;34.428;-119.710;2022-11-11T04:52:08;6;5;
40569;PMS5003;26270;34.428;-119.710;2022-11-11T04:54:37;7;6;
40569;PMS5003;26270;34.428;-119.710;2022-11-11T04:57:04;5;5;
40569;PMS5003;26270;34.428;-119.710;2022-11-11T04:59:32;7;6;
40569;PMS5003;26270;34.428;-119.710;2022-11-11T05:03:18;10;8;
40569;PMS5003;26270;34.428;-119.710;2022-11-11T05:05:48;4;4;
40569;PMS5003;26270;34.428;-119.710;2022-11-11T05:08:17;6;6;
40569;PMS5003;26270;34.428;-119.710;2022-11-11T05:10:46;5;5;
40569;PMS5003;26270;34.428;-119.710;2022-11-11T05:13:14;6;6;
40569;PMS5003;26270;34.428;-119.710;2022-11-11T05:15:43;5;5;
40569;PMS5003;26270;34.428;-119.710;2022-11-11T05:18:12;5;5;
40569;PMS5003;26270;34.428;-119.710;2022-11-11T05:20:41;6;6;
40569;PMS5003;26270;34.428;-119.710;2022-11-11T05:23:14;5;5;
40569;PMS5003;26270;34.428;-119.710;2022-11-11T05:25:41;5;5;
40569;PMS5003;26270;34.428;-119.710;2022-11-11T05:28:10;7;6;
40569;PMS5003;26270;34.428;-119.710;2022-11-11T05:30:38;5;5;
40569;PMS5003;26270;34.428;-119.710;2022-11-11T05:33:06;6;6;
40569;PMS5003;26270;34.428;-119.710;2022-11-11T05:35:34;8;6;
40569;PMS5003;26270;34.428;-119.710;2022-11-11T05:38:02;7;6;
40569;PMS5003;26270;34.428;-119.710;2022-11-11T05:40:30;5;5;
40569;PMS5003;26270;34.428;-119.710;2022-11-11T05:42:59;4;4;
40569;PMS5003;26270;34.428;-119.710;2022-11-11T05:45:27;5;5;
40569;PMS5003;26270;34.428;-119.710;2022-11-11T05:47:54;4;4;
40569;PMS5003;26270;34.428;-119.710;2022-11-11T05:50:26;6;6;
40569;PMS5003;26270;34.428;-119.710;2022-11-11T05:52:55;6;5;
40569;PMS5003;26270;34.428;-119.710;2022-11-11T05:55:22;3;3;
40569;PMS5003;26270;34.428;-119.710;2022-11-11T05:57:51;5;5;
40569;PMS5003;26270;34.428;-119.710;2022-11-11T06:00:18;3;3;
40569;PMS5003;26270;34.428;-119.710;2022-11-11T06:02:47;2;2;
40569;PMS5003;26270;34.428;-119.710;2022-11-11T06:05:15;6;6;
40569;PMS5003;26270;34.428;-119.710;2022-11-11T06:07:43;13;12;
40569;PMS5003;26270;34.428;-119.710;2022-11-11T06:10:11;9;9;
40569;PMS5003;26270;34.428;-119.710;2022-11-11T06:12:41;12;11;
40569;PMS5003;26270;34.428;-119.710;2022-11-11T06:15:09;7;7;
40569;PMS5003;26270;34.428;-119.710;2022-11-11T06:17:38;8;8;
40569;PMS5003;26270;34.428;-119.710;2022-11-11T06:20:06;9;9;
40569;PMS5003;26270;34.428;-119.710;2022-11-11T06:22:36;8;6;
40569;PMS5003;26270;34.428;-119.710;2022-11-11T06:25:04;5;5;
40569;PMS5003;26270;34.428;-119.710;2022-11-11T06:27:32;7;7;
40569;PMS5003;26270;34.428;-119.710;2022-11-11T06:30:01;5;5;
40569;PMS5003;26270;34.428;-119.710;2022-11-11T06:32:29;5;5;
40569;PMS5003;26270;34.428;-119.710;2022-11-11T06:34:57;4;4;
40569;PMS5003;26270;34.428;-119.710;2022-11-11T06:37:25;5;5;
40569;PMS5003;26270;34.428;-119.710;2022-11-11T06:39:53;6;6;
40569;PMS5003;26270;34.428;-119.710;2022-11-11T06:42:22;8;7;
40569;PMS5003;26270;34.428;-119.710;2022-11-11T06:44:50;6;6;
40569;PMS5003;26270;34.428;-119.710;2022-11-11T06:47:18;6;5;
40569;PMS5003;26270;34.428;-119.710;2022-11-11T06:49:46;10;8;
40569;PMS5003;26270;34.428;-119.710;2022-11-11T06:52:15;6;6;
40569;PMS5003;26270;34.428;-119.710;2022-11-11T06:54:42;4;4;
40569;PMS5003;26270;34.428;-119.710;2022-11-11T06:57:11;4;4;
40569;PMS5003;26270;34.428;-119.710;2022-11-11T06:59:39;5;4;
40569;PMS5003;26270;34.428;-119.710;2022-11-11T07:02:08;5;4;
40569;PMS5003;26270;34.428;-119.710;2022-11-11T07:04:40;2;2;
40569;PMS5003;26270;34.428;-119.710;2022-11-11T07:07:07;4;4;
40569;PMS5003;26270;34.428;-119.710;2022-11-11T07:09:35;3;3;
40569;PMS5003;26270;34.428;-119.710;2022-11-11T07:12:03;3;3;
40569;PMS5003;26270;34.428;-119.710;2022-11-11T07:14:31;4;3;
40569;PMS5003;26270;34.428;-119.710;2022-11-11T07:17:00;7;5;
40569;PMS5003;26270;34.428;-119.710;2022-11-11T07:19:28;4;4;
40569;PMS5003;26270;34.428;-119.710;2022-11-11T07:21:56;6;5;
40569;PMS5003;26270;34.428;-119.710;2022-11-11T07:24:24;6;4;
40569;PMS5003;26270;34.428;-119.710;2022-11-11T07:26:53;4;4;
40569;PMS5003;26270;34.428;-119.710;2022-11-11T07:29:20;5;4;
40569;PMS5003;26270;34.428;-119.710;2022-11-11T07:31:49;4;4;
40569;PMS5003;26270;34.428;-119.710;2022-11-11T07:34:18;5;5;
40569;PMS5003;26270;34.428;-119.710;2022-11-11T07:36:46;5;4;
40569;PMS5003;26270;34.428;-119.710;2022-11-11T07:39:13;5;4;
40569;PMS5003;26270;34.428;-119.710;2022-11-11T07:41:41;8;8;
40569;PMS5003;26270;34.428;-119.710;2022-11-11T07:44:09;24;22;
40569;PMS5003;26270;34.428;-119.710;2022-11-11T07:46:36;10;10;
40569;PMS5003;26270;34.428;-119.710;2022-11-11T07:49:04;2;2;
40569;PMS5003;26270;34.428;-119.710;2022-11-11T07:51:33;1;1;
40569;PMS5003;26270;34.428;-119.710;2022-11-11T07:54:01;1;1;
40569;PMS5003;26270;34.428;-119.710;2022-11-11T07:56:30;1;1;
40569;PMS5003;26270;34.428;-119.710;2022-11-11T07:58:58;2;1;
40569;PMS5003;26270;34.428;-119.710;2022-11-11T08:01:27;1;1;
40569;PMS5003;26270;34.428;-119.710;2022-11-11T08:03:55;1;1;
40569;PMS5003;26270;34.428;-119.710;2022-11-11T08:06:23;1;1;
40569;PMS5003;26270;34.428;-119.710;2022-11-11T08:08:51;1;1;
40569;PMS5003;26270;34.428;-119.710;2022-11-11T08:11:20;7;7;
40569;PMS5003;26270;34.428;-119.710;2022-11-11T08:13:48;13;12;
40569;PMS5003;26270;34.428;-119.710;2022-11-11T08:16:16;9;9;
40569;PMS5003;26270;34.428;-119.710;2022-11-11T08:18:44;14;13;
40569;PMS5003;26270;34.428;-119.710;2022-11-11T08:21:12;7;6;
40569;PMS5003;26270;34.428;-119.710;2022-11-11T08:23:40;3;3;
40569;PMS5003;26270;34.428;-119.710;2022-11-11T08:26:08;4;3;
40569;PMS5003;26270;34.428;-119.710;2022-11-11T08:28:36;3;3;
40569;PMS5003;26270;34.428;-119.710;2022-11-11T08:31:04;8;8;
40569;PMS5003;26270;34.428;-119.710;2022-11-11T08:33:33;7;7;
40569;PMS5003;26270;34.428;-119.710;2022-11-11T08:36:01;7;7;
40569;PMS5003;26270;34.428;-119.710;2022-11-11T08:38:30;9;9;
40569;PMS5003;26270;34.428;-119.710;2022-11-11T08:40:58;14;12;
40569;PMS5003;26270;34.428;-119.710;2022-11-11T08:43:27;6;6;
40569;PMS5003;26270;34.428;-119.710;2022-11-11T08:45:56;3;3;
40569;PMS5003;26270;34.428;-119.710;2022-11-11T08:48:24;2;2;
40569;PMS5003;26270;34.428;-119.710;2022-11-11T08:50:53;3;3;
40569;PMS5003;26270;34.428;-119.710;2022-11-11T08:53:22;2;2;
40569;PMS5003;26270;34.428;-119.710;2022-11-11T08:55:50;2;1;
40569;PMS5003;26270;34.428;-119.710;2022-11-11T08:58:18;1;1;
40569;PMS5003;26270;34.428;-119.710;2022-11-11T09:00:47;1;1;
40569;PMS5003;26270;34.428;-119.710;2022-11-11T09:03:15;1;1;
40569;PMS5003;26270;34.428;-119.710;2022-11-11T09:05:43;1;1;
40569;PMS5003;26270;34.428;-119.710;2022-11-11T09:08:11;1;1;
40569;PMS5003;26270;34.428;-119.710;2022-11-11T09:10:40;1;1;
40569;PMS5003;26270;34.428;-119.710;2022-11-11T09:13:08;0;0;
40569;PMS5003;26270;34.428;-119.710;2022-11-11T09:15:37;2;2;
40569;PMS5003;26270;34.428;-119.710;2022-11-11T09:18:05;3;3;
40569;PMS5003;26270;34.428;-119.710;2022-11-11T09:20:34;4;4;
40569;PMS5003;26270;34.428;-119.710;2022-11-11T09:23:02;3;3;
40569;PMS5003;26270;34.428;-119.710;2022-11-11T09:25:31;6;5;
40569;PMS5003;26270;34.428;-119.710;2022-11-11T09:27:59;6;5;
40569;PMS5003;26270;34.428;-119.710;2022-11-11T09:30:28;3;2;
40569;PMS5003;26270;34.428;-119.710;2022-11-11T09:33:00;1;1;
40569;PMS5003;26270;34.428;-119.710;2022-11-11T09:35:29;1;1;
40569;PMS5003;26270;34.428;-119.710;2022-11-11T09:37:57;0;0;
40569;PMS5003;26270;34.428;-119.710;2022-11-11T09:40:27;1;1;
40569;PMS5003;26270;34.428;-119.710;2022-11-11T09:43:10;0;0;
40569;PMS5003;26270;34.428;-119.710;2022-11-11T09:45:47;0;0;
40569;PMS5003;26270;34.428;-119.710;2022-11-11T09:48:33;0;0;
40569;PMS5003;26270;34.428;-119.710;2022-11-11T09:51:15;0;0;
40569;PMS5003;26270;34.428;-119.710;2022-11-11T09:53:47;0;0;
40569;PMS5003;26270;34.428;-119.710;2022-11-11T09:56:19;1;0;
40569;PMS5003;26270;34.428;-119.710;2022-11-11T09:58:50;0;0;
40569;PMS5003;26270;34.428;-119.710;2022-11-11T10:01:23;0;0;
40569;PMS5003;26270;34.428;-119.710;2022-11-11T10:03:56;0;0;
40569;PMS5003;26270;34.428;-119.710;2022-11-11T10:06:34;0;0;
40569;PMS5003;26270;34.428;-119.710;2022-11-11T10:09:05;1;1;
40569;PMS5003;26270;34.428;-119.710;2022-11-11T10:11:46;0;0;
40569;PMS5003;26270;34.428;-119.710;2022-11-11T10:14:19;0;0;
40569;PMS5003;26270;34.428;-119.710;2022-11-11T10:16:47;1;0;
40569;PMS5003;26270;34.428;-119.710;2022-11-11T10:19:28;0;0;
40569;PMS5003;26270;34.428;-119.710;2022-11-11T10:21:59;0;0;
40569;PMS5003;26270;34.428;-119.710;2022-11-11T10:24:31;0;0;
40569;PMS5003;26270;34.428;-119.710;2022-11-11T10:27:18;0;0;
40569;PMS5003;26270;34.428;-119.710;2022-11-11T10:29:47;0;0;
40569;PMS5003;26270;34.428;-119.710;2022-11-11T10:32:17;0;0;
40569;PMS5003;26270;34.428;-119.710;2022-11-11T10:34:47;0;0;
40569;PMS5003;26270;34.428;-119.710;2022-11-11T10:37:17;0;0;
40569;PMS5003;26270;34.428;-119.710;2022-11-11T10:39:55;0;0;
40569;PMS5003;26270;34.428;-119.710;2022-11-11T10:42:30;0;0;
40569;PMS5003;26270;34.428;-119.710;2022-11-11T10:44:58;0;0;
40569;PMS5003;26270;34.428;-119.710;2022-11-11T10:47:33;0;0;
40569;PMS5003;26270;34.428;-119.710;2022-11-11T10:50:11;0;0;
40569;PMS5003;26270;34.428;-119.710;2022-11-11T10:52:46;0;0;
40569;PMS5003;26270;34.428;-119.710;2022-11-11T10:55:21;1;1;
40569;PMS5003;26270;34.428;-119.710;2022-11-11T10:57:56;0;0;
40569;PMS5003;26270;34.428;-119.710;2022-11-11T11:00:32;0;0;
40569;PMS5003;26270;34.428;-119.710;2022-11-11T11:03:05;0;0;
40569;PMS5003;26270;34.428;-119.710;2022-11-11T11:05:41;0;0;
40569;PMS5003;26270;34.428;-119.710;2022-11-11T11:08:16;0;0;
40569;PMS5003;26270;34.428;-119.710;2022-11-11T11:10:47;0;0;
40569;PMS5003;26270;34.428;-119.710;2022-11-11T11:13:22;0;0;
40569;PMS5003;26270;34.428;-119.710;2022-11-11T11:15:57;0;0;
40569;PMS5003;26270;34.428;-119.710;2022-11-11T11:18:30;1;0;
40569;PMS5003;26270;34.428;-119.710;2022-11-11T11:20:58;0;0;
40569;PMS5003;26270;34.428;-119.710;2022-11-11T11:23:37;0;0;
40569;PMS5003;26270;34.428;-119.710;2022-11-11T11:26:07;0;0;
40569;PMS5003;26270;34.428;-119.710;2022-11-11T11:28:51;0;0;
40569;PMS5003;26270;34.428;-119.710;2022-11-11T11:31:23;0;0;
40569;PMS5003;26270;34.428;-119.710;2022-11-11T11:34:02;0;0;
40569;PMS5003;26270;34.428;-119.710;2022-11-11T11:36:31;0;0;
40569;PMS5003;26270;34.428;-119.710;2022-11-11T11:39:00;0;0;
40569;PMS5003;26270;34.428;-119.710;2022-11-11T11:41:36;0;0;
40569;PMS5003;26270;34.428;-119.710;2022-11-11T11:44:23;0;0;
40569;PMS5003;26270;34.428;-119.710;2022-11-11T11:46:54;0;0;
40569;PMS5003;26270;34.428;-119.710;2022-11-11T11:49:34;1;1;
40569;PMS5003;26270;34.428;-119.710;2022-11-11T11:52:15;0;0;
40569;PMS5003;26270;34.428;-119.710;2022-11-11T11:54:54;0;0;
40569;PMS5003;26270;34.428;-119.710;2022-11-11T11:57:33;0;0;
40569;PMS5003;26270;34.428;-119.710;2022-11-11T12:00:13;0;0;
40569;PMS5003;26270;34.428;-119.710;2022-11-11T12:03:24;1;0;
40569;PMS5003;26270;34.428;-119.710;2022-11-11T12:06:08;0;0;
40569;PMS5003;26270;34.428;-119.710;2022-11-11T12:08:49;0;0;
40569;PMS5003;26270;34.428;-119.710;2022-11-11T12:11:29;0;0;
40569;PMS5003;26270;34.428;-119.710;2022-11-11T12:14:11;0;0;
40569;PMS5003;26270;34.428;-119.710;2022-11-11T12:17:09;0;0;
40569;PMS5003;26270;34.428;-119.710;2022-11-11T12:19:49;0;0;
40569;PMS5003;26270;34.428;-119.710;2022-11-11T12:22:25;1;1;
40569;PMS5003;26270;34.428;-119.710;2022-11-11T12:25:05;0;0;
40569;PMS5003;26270;34.428;-119.710;2022-11-11T12:27:44;0;0;
40569;PMS5003;26270;34.428;-119.710;2022-11-11T12:30:22;0;0;
40569;PMS5003;26270;34.428;-119.710;2022-11-11T12:32:56;1;0;
40569;PMS5003;26270;34.428;-119.710;2022-11-11T12:35:40;0;0;
40569;PMS5003;26270;34.428;-119.710;2022-11-11T12:38:24;2;0;
40569;PMS5003;26270;34.428;-119.710;2022-11-11T12:41:09;1;1;
40569;PMS5003;26270;34.428;-119.710;2022-11-11T12:43:49;1;1;
40569;PMS5003;26270;34.428;-119.710;2022-11-11T12:46:24;1;0;
40569;PMS5003;26270;34.428;-119.710;2022-11-11T12:49:06;0;0;
40569;PMS5003;26270;34.428;-119.710;2022-11-11T12:51:53;1;1;
40569;PMS5003;26270;34.428;-119.710;2022-11-11T12:54:28;0;0;
40569;PMS5003;26270;34.428;-119.710;2022-11-11T12:57:08;0;0;
40569;PMS5003;26270;34.428;-119.710;2022-11-11T12:59:52;0;0;
40569;PMS5003;26270;34.428;-119.710;2022-11-11T13:02:37;1;1;
40569;PMS5003;26270;34.428;-119.710;2022-11-11T13:05:21;0;0;
40569;PMS5003;26270;34.428;-119.710;2022-11-11T13:09:01;0;0;
40569;PMS5003;26270;34.428;-119.710;2022-11-11T13:11:54;0;0;
40569;PMS5003;26270;34.428;-119.710;2022-11-11T13:14:34;0;0;
40569;PMS5003;26270;34.428;-119.710;2022-11-11T13:17:11;0;0;
40569;PMS5003;26270;34.428;-119.710;2022-11-11T13:19:41;1;0;
40569;PMS5003;26270;34.428;-119.710;2022-11-11T13:22:16;1;1;
40569;PMS5003;26270;34.428;-119.710;2022-11-11T13:24:48;0;0;
40569;PMS5003;26270;34.428;-119.710;2022-11-11T13:27:19;0;0;
40569;PMS5003;26270;34.428;-119.710;2022-11-11T13:30:03;1;1;
40569;PMS5003;26270;34.428;-119.710;2022-11-11T13:32:41;0;0;
40569;PMS5003;26270;34.428;-119.710;2022-11-11T13:35:19;0;0;
40569;PMS5003;26270;34.428;-119.710;2022-11-11T13:37:52;0;0;
40569;PMS5003;26270;34.428;-119.710;2022-11-11T13:40:25;0;0;
40569;PMS5003;26270;34.428;-119.710;2022-11-11T13:43:00;0;0;
40569;PMS5003;26270;34.428;-119.710;2022-11-11T13:45:31;1;1;
40569;PMS5003;26270;34.428;-119.710;2022-11-11T13:48:02;2;1;
40569;PMS5003;26270;34.428;-119.710;2022-11-11T13:50:32;0;0;
40569;PMS5003;26270;34.428;-119.710;2022-11-11T13:53:05;0;0;
40569;PMS5003;26270;34.428;-119.710;2022-11-11T13:55:40;2;1;
40569;PMS5003;26270;34.428;-119.710;2022-11-11T13:58:17;1;0;
40569;PMS5003;26270;34.428;-119.710;2022-11-11T14:00:55;1;1;
40569;PMS5003;26270;34.428;-119.710;2022-11-11T14:03:28;0;0;
40569;PMS5003;26270;34.428;-119.710;2022-11-11T14:07:55;0;0;
40569;PMS5003;26270;34.428;-119.710;2022-11-11T14:10:56;0;0;
40569;PMS5003;26270;34.428;-119.710;2022-11-11T14:13:46;0;0;
40569;PMS5003;26270;34.428;-119.710;2022-11-11T14:16:56;0;0;
40569;PMS5003;26270;34.428;-119.710;2022-11-11T14:19:28;0;0;
40569;PMS5003;26270;34.428;-119.710;2022-11-11T14:21:57;0;0;
40569;PMS5003;26270;34.428;-119.710;2022-11-11T14:24:29;0;0;
40569;PMS5003;26270;34.428;-119.710;2022-11-11T14:27:02;0;0;
40569;PMS5003;26270;34.428;-119.710;2022-11-11T14:29:46;0;0;
40569;PMS5003;26270;34.428;-119.710;2022-11-11T14:32:30;0;0;
40569;PMS5003;26270;34.428;-119.710;2022-11-11T14:35:24;0;0;
40569;PMS5003;26270;34.428;-119.710;2022-11-11T14:38:03;0;0;
40569;PMS5003;26270;34.428;-119.710;2022-11-11T14:40:43;1;1;
40569;PMS5003;26270;34.428;-119.710;2022-11-11T14:43:43;1;0;
40569;PMS5003;26270;34.428;-119.710;2022-11-11T14:46:11;1;1;
40569;PMS5003;26270;34.428;-119.710;2022-11-11T14:48:55;1;1;
40569;PMS5003;26270;34.428;-119.710;2022-11-11T14:51:43;1;1;
40569;PMS5003;26270;34.428;-119.710;2022-11-11T14:54:20;2;1;
40569;PMS5003;26270;34.428;-119.710;2022-11-11T14:56:57;1;1;
40569;PMS5003;26270;34.428;-119.710;2022-11-11T14:59:31;1;1;
40569;PMS5003;26270;34.428;-119.710;2022-11-11T15:02:01;1;1;
40569;PMS5003;26270;34.428;-119.710;2022-11-11T15:04:38;2;1;
40569;PMS5003;26270;34.428;-119.710;2022-11-11T15:07:13;2;1;
40569;PMS5003;26270;34.428;-119.710;2022-11-11T15:09:58;1;1;
40569;PMS5003;26270;34.428;-119.710;2022-11-11T15:12:40;1;0;
40569;PMS5003;26270;34.428;-119.710;2022-11-11T15:15:21;0;0;
40569;PMS5003;26270;34.428;-119.710;2022-11-11T15:17:57;1;0;
40569;PMS5003;26270;34.428;-119.710;2022-11-11T15:20:41;0;0;
40569;PMS5003;26270;34.428;-119.710;2022-11-11T15:23:22;1;1;
40569;PMS5003;26270;34.428;-119.710;2022-11-11T15:26:00;1;1;
40569;PMS5003;26270;34.428;-119.710;2022-11-11T15:28:38;0;0;
40569;PMS5003;26270;34.428;-119.710;2022-11-11T15:31:19;2;1;
40569;PMS5003;26270;34.428;-119.710;2022-11-11T15:33:56;0;0;
40569;PMS5003;26270;34.428;-119.710;2022-11-11T15:36:41;0;0;
40569;PMS5003;26270;34.428;-119.710;2022-11-11T15:39:18;1;1;
40569;PMS5003;26270;34.428;-119.710;2022-11-11T15:41:51;0;0;
40569;PMS5003;26270;34.428;-119.710;2022-11-11T15:44:20;1;1;
40569;PMS5003;26270;34.428;-119.710;2022-11-11T15:46:50;2;2;
40569;PMS5003;26270;34.428;-119.710;2022-11-11T15:49:40;2;0;
40569;PMS5003;26270;34.428;-119.710;2022-11-11T15:52:26;1;0;
40569;PMS5003;26270;34.428;-119.710;2022-11-11T15:54:57;0;0;
40569;PMS5003;26270;34.428;-119.710;2022-11-11T15:57:27;1;0;
40569;PMS5003;26270;34.428;-119.710;2022-11-11T15:59:58;0;0;
40569;PMS5003;26270;34.428;-119.710;2022-11-11T16:02:29;0;0;
40569;PMS5003;26270;34.428;-119.710;2022-11-11T16:05:00;0;0;
40569;PMS5003;26270;34.428;-119.710;2022-11-11T16:07:30;1;1;
40569;PMS5003;26270;34.428;-119.710;2022-11-11T16:10:05;1;1;
40569;PMS5003;26270;34.428;-119.710;2022-11-11T16:12:41;0;0;
40569;PMS5003;26270;34.428;-119.710;2022-11-11T16:15:17;0;0;
40569;PMS5003;26270;34.428;-119.710;2022-11-11T16:17:51;0;0;
40569;PMS5003;26270;34.428;-119.710;2022-11-11T16:20:24;0;0;
40569;PMS5003;26270;34.428;-119.710;2022-11-11T16:22:56;1;1;
40569;PMS5003;26270;34.428;-119.710;2022-11-11T16:25:28;1;1;
40569;PMS5003;26270;34.428;-119.710;2022-11-11T16:27:57;2;2;
40569;PMS5003;26270;34.428;-119.710;2022-11-11T16:30:28;0;0;
40569;PMS5003;26270;34.428;-119.710;2022-11-11T16:32:59;0;0;
40569;PMS5003;26270;34.428;-119.710;2022-11-11T16:35:29;1;1;